Albany, California
Current Conditions -  °F | °C
As of 12:53 PM on Sunday 23 Nov 2014 (Local Time) from KOAK Reporting Station
Broken Clouds Broken Clouds  
Wind Chill: 60°   Ceiling: 10000
Heat Index: 60°   Visibility: 10mi
Dew Point: 43°   Wind: 6mph
Humidity: 53%   Direction: 210°SSW
Pressure: 30.29"   Gusts: NA
Location:  37.89°N, 122.29°W
Report Text: KOAK 232053Z 21005KT 10SM BKN100 BKN250 16/06 A3029 RMK AO2 SLP256 T01560061 58019 $
Loading
Personal Weather Stations






























Interactive Weather Map New forecast layout! Learn more

10-Day Weather Forecast

Advertisements
Track Severe Weather on mobile